Time;durP1;ratioP1;P1;durP2;ratioP2;P2;SDS_P1;SDS_P2;PMS_P1;PMS_P2;Temp;Humidity;BMP_temperature;BMP_pressure;BME280_temperature;BME280_humidity;BME280_pressure;Samples;Min_cycle;Max_cycle;Signal;HPM_P1;HPM_P2
2022/01/29 00:01:32;;;;;;;2.08;1.10;;;;;;;0.44;87.00;97784.53;1676101;83;21023;-61
2022/01/29 00:03:59;;;;;;;2.75;1.17;;;;;;;0.43;87.00;97792.14;1693490;83;21557;-61
2022/01/29 00:06:26;;;;;;;2.62;1.20;;;;;;;0.40;86.93;97792.59;1702619;83;20995;-59
2022/01/29 00:11:18;;;;;;;1.70;1.00;;;;;;;0.35;86.69;97801.72;1695615;83;21145;-61
2022/01/29 00:13:45;;;;;;;1.20;0.78;;;;;;;0.34;86.58;97805.88;1700303;83;20984;-62
2022/01/29 00:16:12;;;;;;;1.12;0.75;;;;;;;0.33;86.48;97809.03;1710384;83;21640;-62
2022/01/29 00:18:39;;;;;;;1.20;0.80;;;;;;;0.30;86.32;97816.60;1690417;83;21019;-60
2022/01/29 00:21:07;;;;;;;1.12;0.80;;;;;;;0.27;86.28;97812.59;1698731;83;20912;-60
2022/01/29 00:23:34;;;;;;;1.12;0.70;;;;;;;0.25;86.29;97819.12;1701436;83;21110;-61
2022/01/29 00:26:00;;;;;;;1.22;0.68;;;;;;;0.23;85.70;97827.26;1691431;83;20932;-59
2022/01/29 00:28:28;;;;;;;0.90;0.60;;;;;;;0.24;85.51;97839.38;1708438;83;21372;-64
2022/01/29 00:30:56;;;;;;;1.02;0.68;;;;;;;0.24;85.37;97834.63;1689762;83;20909;-59
2022/01/29 00:33:22;;;;;;;1.95;0.78;;;;;;;0.24;85.12;97832.80;1702710;83;20881;-60
2022/01/29 00:35:49;;;;;;;2.00;0.90;;;;;;;0.24;85.14;97834.11;1676780;83;21004;-62
2022/01/29 00:38:16;;;;;;;2.27;0.98;;;;;;;0.25;85.16;97839.68;1690110;83;20888;-64
2022/01/29 00:40:45;;;;;;;1.90;0.80;;;;;;;0.26;84.74;97845.77;1705833;82;20947;-62
2022/01/29 00:43:13;;;;;;;3.10;0.68;;;;;;;0.25;84.81;97845.45;1702410;83;20916;-64
2022/01/29 00:45:39;;;;;;;2.12;0.70;;;;;;;0.27;84.71;97849.98;1681135;83;20951;-60
2022/01/29 00:48:06;;;;;;;2.10;0.50;;;;;;;0.26;83.23;97844.44;1686645;82;21411;-60
2022/01/29 00:50:32;;;;;;;1.47;0.60;;;;;;;0.25;82.71;97852.05;1701114;82;21403;-62
2022/01/29 00:52:59;;;;;;;1.72;0.50;;;;;;;0.23;83.00;97851.47;1694967;82;20904;-59
2022/01/29 00:55:26;;;;;;;2.80;0.80;;;;;;;0.20;83.04;97860.63;1710094;83;20940;-59
2022/01/29 00:57:52;;;;;;;1.22;0.60;;;;;;;0.19;83.24;97845.84;1690787;83;20943;-59
2022/01/29 01:00:19;;;;;;;1.98;0.90;;;;;;;0.22;83.17;97852.48;1678746;83;21121;-60
2022/01/29 01:02:46;;;;;;;1.45;0.68;;;;;;;0.22;83.23;97859.08;1689719;83;21388;-59
2022/01/29 01:05:12;;;;;;;2.40;1.00;;;;;;;0.21;82.99;97866.20;1707736;83;20896;-59
2022/01/29 01:07:41;;;;;;;2.27;0.57;;;;;;;0.21;83.64;97874.61;1678667;82;20900;-59
2022/01/29 01:10:09;;;;;;;1.62;0.80;;;;;;;0.18;84.09;97868.47;1703350;82;21143;-64
2022/01/29 01:12:36;;;;;;;1.37;0.78;;;;;;;0.10;84.41;97872.73;1702152;83;21152;-63
2022/01/29 01:15:05;;;;;;;2.02;0.70;;;;;;;0.05;84.77;97883.17;1701410;83;21582;-59
2022/01/29 01:17:32;;;;;;;3.00;0.60;;;;;;;-0.01;85.00;97884.87;1688426;83;20957;-62
2022/01/29 01:19:58;;;;;;;1.95;0.70;;;;;;;-0.04;85.34;97888.75;1702921;83;20960;-64
2022/01/29 01:22:25;;;;;;;3.22;0.75;;;;;;;-0.06;86.11;97885.55;1702840;83;20991;-63
2022/01/29 01:24:51;;;;;;;2.08;0.90;;;;;;;-0.09;86.57;97885.98;1699583;83;21770;-61
2022/01/29 01:27:18;;;;;;;2.10;0.78;;;;;;;-0.15;86.73;97885.58;1691030;83;20904;-60
2022/01/29 01:29:46;;;;;;;1.30;0.70;;;;;;;-0.20;87.04;97881.50;1693558;83;21487;-59
2022/01/29 01:32:13;;;;;;;3.12;0.90;;;;;;;-0.20;87.00;97887.27;1702465;83;20951;-59
2022/01/29 01:34:46;;;;;;;2.30;0.82;;;;;;;-0.23;86.90;97881.94;1704153;83;20896;-64
2022/01/29 01:37:13;;;;;;;3.98;1.10;;;;;;;-0.23;86.80;97878.49;1693457;83;21126;-59
2022/01/29 01:39:39;;;;;;;2.20;0.80;;;;;;;-0.25;86.78;97890.57;1700444;83;20939;-60
2022/01/29 01:42:07;;;;;;;3.77;0.70;;;;;;;-0.26;86.56;97886.33;1699520;83;20928;-60
2022/01/29 01:44:45;;;;;;;2.58;1.10;;;;;;;-0.28;86.46;97892.33;1681512;82;20968;-60
2022/01/29 01:47:10;;;;;;;2.37;1.00;;;;;;;-0.32;85.63;97889.86;1668290;85;20974;-64
2022/01/29 01:49:37;;;;;;;2.40;0.88;;;;;;;-0.35;85.24;97896.87;1678849;84;21135;-64
2022/01/29 01:52:08;;;;;;;3.27;0.90;;;;;;;-0.36;85.48;97895.80;1677789;85;21445;-59
2022/01/29 01:54:34;;;;;;;2.10;0.90;;;;;;;-0.37;84.17;97897.63;1626881;85;21487;-60
2022/01/29 01:57:02;;;;;;;2.37;0.90;;;;;;;-0.36;84.20;97895.29;1648224;85;20884;-62
2022/01/29 01:59:29;;;;;;;1.80;0.90;;;;;;;-0.35;83.83;97905.28;1669863;85;21874;-62
2022/01/29 02:01:55;;;;;;;4.03;0.82;;;;;;;-0.35;83.29;97910.03;1675914;84;21133;-62
2022/01/29 02:04:23;;;;;;;2.72;0.80;;;;;;;-0.33;82.62;97907.98;1676221;84;20961;-60
2022/01/29 02:06:53;;;;;;;1.92;0.80;;;;;;;-0.33;81.80;97902.72;1672479;84;21580;-59
2022/01/29 02:09:23;;;;;;;2.70;0.80;;;;;;;-0.32;81.09;97916.69;1676362;84;20887;-60
2022/01/29 02:11:54;;;;;;;2.15;0.95;;;;;;;-0.31;81.36;97916.99;1679091;84;20923;-63
2022/01/29 02:14:24;;;;;;;2.85;0.80;;;;;;;-0.32;80.10;97913.55;1705231;83;21093;-59
2022/01/29 02:16:51;;;;;;;1.98;0.85;;;;;;;-0.33;79.41;97921.14;1677464;83;20952;-64
2022/01/29 02:19:18;;;;;;;2.75;0.98;;;;;;;-0.34;78.90;97932.71;1710362;83;20991;-63
2022/01/29 02:21:44;;;;;;;2.52;0.90;;;;;;;-0.35;79.44;97941.63;1690149;83;21114;-61
2022/01/29 02:24:11;;;;;;;3.10;0.80;;;;;;;-0.35;79.58;97945.56;1677575;83;21511;-64
2022/01/29 02:26:37;;;;;;;1.75;0.80;;;;;;;-0.35;79.27;97941.63;1689987;83;21184;-60
2022/01/29 02:29:04;;;;;;;2.50;0.90;;;;;;;-0.37;79.50;97944.99;1699245;83;21126;-60
2022/01/29 02:31:31;;;;;;;1.32;0.60;;;;;;;-0.36;79.88;97945.80;1689639;83;21118;-64
2022/01/29 02:33:57;;;;;;;4.75;1.20;;;;;;;-0.34;80.22;97945.88;1700706;82;21641;-62
2022/01/29 02:36:24;;;;;;;3.20;0.90;;;;;;;-0.32;80.37;97950.91;1705583;83;20987;-64
2022/01/29 02:38:51;;;;;;;3.22;0.82;;;;;;;-0.33;80.74;97957.98;1697290;82;21883;-61
2022/01/29 02:41:19;;;;;;;6.62;1.60;;;;;;;-0.33;81.01;97957.21;1691409;83;21030;-62
2022/01/29 02:43:47;;;;;;;1.85;0.98;;;;;;;-0.35;81.17;97957.41;1707168;82;21457;-63
2022/01/29 02:48:43;;;;;;;2.60;1.10;;;;;;;-0.32;81.13;97966.19;1699474;82;20975;-63
2022/01/29 02:51:09;;;;;;;3.30;0.90;;;;;;;-0.32;80.63;97962.24;1698635;82;21423;-63
2022/01/29 02:53:36;;;;;;;3.00;1.02;;;;;;;-0.34;80.09;97973.51;1719791;83;20903;-59
2022/01/29 02:56:03;;;;;;;5.95;1.60;;;;;;;-0.37;79.62;97975.26;1708973;83;20912;-63
2022/01/29 02:58:31;;;;;;;3.40;1.20;;;;;;;-0.38;79.66;97981.56;1702404;83;20944;-63
2022/01/29 03:00:58;;;;;;;4.55;1.32;;;;;;;-0.37;78.56;97984.47;1712295;83;21116;-60
2022/01/29 03:03:25;;;;;;;4.78;1.32;;;;;;;-0.36;76.90;97984.77;1702155;83;21100;-63
2022/01/29 03:08:18;;;;;;;3.72;1.30;;;;;;;-0.34;76.04;97990.61;1689320;83;20964;-62
2022/01/29 03:10:47;;;;;;;3.35;1.00;;;;;;;-0.34;75.36;97978.77;1691316;83;20932;-59
2022/01/29 03:13:14;;;;;;;5.05;1.30;;;;;;;-0.37;74.27;97996.31;1699437;83;20943;-62
2022/01/29 03:15:40;;;;;;;3.27;0.98;;;;;;;-0.40;74.10;98003.86;1698832;83;21106;-62
2022/01/29 03:18:07;;;;;;;2.25;1.20;;;;;;;-0.45;73.54;98017.67;1697510;83;20896;-61
2022/01/29 03:20:33;;;;;;;3.33;1.55;;;;;;;-0.50;72.79;98005.69;1680709;83;21471;-60
2022/01/29 03:23:00;;;;;;;3.67;1.30;;;;;;;-0.53;72.99;98010.06;1698837;83;21487;-60
2022/01/29 03:25:26;;;;;;;4.42;1.42;;;;;;;-0.51;73.27;98010.64;1704574;83;21110;-60
2022/01/29 03:27:53;;;;;;;4.75;1.55;;;;;;;-0.51;73.02;98010.64;1713991;83;21125;-63
2022/01/29 03:30:20;;;;;;;7.92;1.60;;;;;;;-0.49;73.05;98010.41;1697048;83;20948;-63
2022/01/29 03:32:47;;;;;;;3.87;1.47;;;;;;;-0.49;72.49;98017.80;1684634;83;21537;-59
2022/01/29 03:35:15;;;;;;;3.87;1.00;;;;;;;-0.50;71.28;98029.87;1694914;83;21492;-63
2022/01/29 03:37:42;;;;;;;2.65;1.20;;;;;;;-0.51;68.79;98023.80;1685768;83;20928;-63
2022/01/29 03:40:09;;;;;;;5.97;1.20;;;;;;;-0.51;68.74;98025.62;1684646;83;21047;-59
2022/01/29 03:42:43;;;;;;;2.15;0.90;;;;;;;-0.54;68.21;98029.48;1702128;83;20873;-64
2022/01/29 03:45:07;;;;;;;2.95;0.90;;;;;;;-0.55;68.18;98026.58;1705018;83;21503;-60
2022/01/29 03:47:34;;;;;;;3.67;1.02;;;;;;;-0.56;68.15;98031.54;1678144;83;20876;-63
2022/01/29 03:50:00;;;;;;;1.22;0.70;;;;;;;-0.55;68.46;98038.42;1693141;83;21462;-61
2022/01/29 03:52:27;;;;;;;2.40;1.00;;;;;;;-0.54;67.75;98030.80;1687896;83;21110;-60
2022/01/29 03:54:53;;;;;;;3.50;1.00;;;;;;;-0.54;67.32;98030.80;1679066;83;20900;-59
2022/01/29 03:57:20;;;;;;;2.15;0.93;;;;;;;-0.53;67.39;98036.38;1695451;83;20912;-61
2022/01/29 03:59:46;;;;;;;2.27;0.82;;;;;;;-0.53;67.41;98044.27;1690731;83;21517;-64
2022/01/29 04:02:13;;;;;;;1.62;0.75;;;;;;;-0.54;66.72;98040.02;1700238;83;20896;-59
2022/01/29 04:04:41;;;;;;;2.33;0.80;;;;;;;-0.55;66.66;98050.77;1709744;83;20908;-60
2022/01/29 04:07:11;;;;;;;3.05;0.93;;;;;;;-0.58;66.83;98049.87;1694665;82;20936;-59
2022/01/29 04:09:35;;;;;;;2.25;1.00;;;;;;;-0.59;65.97;98055.67;1697970;82;20982;-64
2022/01/29 04:12:04;;;;;;;2.45;0.75;;;;;;;-0.61;66.41;98054.28;1717140;82;21470;-64
2022/01/29 04:14:38;;;;;;;1.77;0.55;;;;;;;-0.60;65.98;98059.81;1692587;83;21463;-64
2022/01/29 04:17:04;;;;;;;1.87;0.80;;;;;;;-0.63;66.67;98061.05;1715023;82;21190;-64
2022/01/29 04:19:32;;;;;;;2.62;0.98;;;;;;;-0.64;66.57;98058.65;1714716;83;21040;-64
2022/01/29 04:21:58;;;;;;;2.67;1.00;;;;;;;-0.63;66.64;98061.05;1698606;83;20991;-62
2022/01/29 04:24:25;;;;;;;2.75;0.72;;;;;;;-0.61;66.63;98060.32;1708775;83;20909;-63
2022/01/29 04:26:52;;;;;;;2.72;1.20;;;;;;;-0.63;66.79;98066.82;1702644;83;21427;-62
2022/01/29 04:29:19;;;;;;;2.12;0.70;;;;;;;-0.65;67.08;98070.99;1699688;83;21716;-61
2022/01/29 04:34:19;;;;;;;5.72;1.30;;;;;;;-0.66;66.77;98062.83;1712257;83;20907;-63
2022/01/29 04:36:46;;;;;;;3.90;1.40;;;;;;;-0.69;66.80;98071.14;1711031;83;21420;-63
2022/01/29 04:39:13;;;;;;;7.03;1.80;;;;;;;-0.69;67.44;98076.41;1707250;82;20864;-63
2022/01/29 04:41:40;;;;;;;3.08;1.20;;;;;;;-0.68;67.11;98074.05;1709609;83;21107;-61
2022/01/29 04:44:06;;;;;;;6.65;1.72;;;;;;;-0.66;67.13;98077.30;1714404;83;21455;-63
2022/01/29 04:46:33;;;;;;;4.72;1.37;;;;;;;-0.66;66.75;98083.06;1719463;83;20908;-63
2022/01/29 04:49:01;;;;;;;3.40;1.17;;;;;;;-0.68;66.33;98083.25;1708980;83;20936;-62
2022/01/29 04:51:28;;;;;;;3.02;1.02;;;;;;;-0.64;66.73;98079.70;1691880;83;20999;-59
2022/01/29 04:53:55;;;;;;;5.40;1.32;;;;;;;-0.66;67.09;98084.38;1700571;83;21091;-63
2022/01/29 04:56:21;;;;;;;5.80;1.20;;;;;;;-0.66;67.39;98085.19;1685462;83;21476;-64
2022/01/29 04:58:48;;;;;;;4.25;1.20;;;;;;;-0.63;66.22;98080.78;1680245;83;20944;-63
2022/01/29 05:01:15;;;;;;;3.00;1.30;;;;;;;-0.58;66.49;98075.68;1709113;82;21039;-64
2022/01/29 05:03:41;;;;;;;4.00;1.47;;;;;;;-0.55;66.46;98084.97;1698934;82;20992;-60
2022/01/29 05:06:10;;;;;;;6.17;1.57;;;;;;;-0.57;66.41;98090.46;1704304;83;21067;-63
2022/01/29 05:08:38;;;;;;;3.45;1.75;;;;;;;-0.59;66.32;98087.24;1700218;83;20916;-64
2022/01/29 05:11:06;;;;;;;4.70;1.70;;;;;;;-0.59;66.71;98093.82;1690010;83;20995;-60
2022/01/29 05:13:35;;;;;;;2.05;1.15;;;;;;;-0.62;66.70;98087.67;1689866;83;21015;-62
2022/01/29 05:27:05;;;;;;;3.22;0.88;;;;;;;-0.72;64.21;98097.88;1688088;83;20985;-63
2022/01/29 05:29:32;;;;;;;1.10;0.68;;;;;;;-0.74;64.30;98098.59;1708779;83;21427;-65
2022/01/29 05:32:02;;;;;;;3.95;1.00;;;;;;;-0.75;63.68;98099.61;1698614;83;21130;-62
2022/01/29 05:34:29;;;;;;;3.80;0.93;;;;;;;-0.77;62.86;98112.17;1703092;83;20892;-61
2022/01/29 05:36:55;;;;;;;2.50;0.85;;;;;;;-0.77;63.26;98124.01;1694420;83;20965;-64
2022/01/29 05:39:24;;;;;;;2.42;1.00;;;;;;;-0.75;63.56;98121.96;1699500;83;20899;-62
2022/01/29 05:41:51;;;;;;;1.62;0.98;;;;;;;-0.76;63.69;98127.76;1717499;83;20915;-63
2022/01/29 05:44:17;;;;;;;2.08;0.78;;;;;;;-0.76;63.67;98140.09;1707676;83;21809;-60
2022/01/29 05:46:43;;;;;;;3.60;0.93;;;;;;;-0.77;63.79;98135.84;1707312;83;20923;-61
2022/01/29 05:49:10;;;;;;;2.47;0.90;;;;;;;-0.80;64.19;98135.76;1699571;83;21010;-63
2022/01/29 05:51:38;;;;;;;3.25;1.27;;;;;;;-0.81;64.33;98142.56;1694025;83;20959;-60
2022/01/29 05:54:04;;;;;;;3.65;1.07;;;;;;;-0.81;64.98;98139.93;1698428;83;20904;-64
2022/01/29 05:56:31;;;;;;;4.12;1.25;;;;;;;-0.80;65.42;98141.02;1698477;82;21707;-62
2022/01/29 05:58:57;;;;;;;3.22;1.30;;;;;;;-0.79;65.87;98140.52;1692620;82;21114;-63
2022/01/29 06:01:24;;;;;;;3.42;1.00;;;;;;;-0.79;66.36;98142.64;1693705;83;20987;-62
2022/01/29 06:03:50;;;;;;;3.67;1.27;;;;;;;-0.83;66.91;98144.61;1703820;83;21047;-59
2022/01/29 06:06:16;;;;;;;3.83;1.10;;;;;;;-0.87;67.59;98157.36;1685228;83;26908;-63
2022/01/29 06:08:43;;;;;;;3.92;1.40;;;;;;;-0.88;68.49;98154.45;1697296;83;21069;-60
2022/01/29 06:11:09;;;;;;;5.85;1.87;;;;;;;-0.90;69.18;98146.48;1687505;83;20935;-59
2022/01/29 06:13:37;;;;;;;3.77;1.12;;;;;;;-0.92;69.96;98159.04;1700646;83;20892;-58
2022/01/29 06:16:05;;;;;;;3.05;1.57;;;;;;;-0.90;70.61;98162.25;1708946;83;20924;-62
2022/01/29 06:18:33;;;;;;;5.58;1.70;;;;;;;-0.88;71.33;98157.58;1701142;83;21416;-59
2022/01/29 06:21:04;;;;;;;4.83;1.80;;;;;;;-0.87;72.24;98163.13;1700754;83;21923;-63
2022/01/29 06:23:30;;;;;;;6.42;1.98;;;;;;;-0.87;72.34;98160.49;1685442;83;20995;-61
2022/01/29 06:25:59;;;;;;;5.45;1.90;;;;;;;-0.87;72.97;98161.81;1696273;83;21129;-59
2022/01/29 06:28:26;;;;;;;5.33;1.70;;;;;;;-0.84;73.40;98166.65;1708247;83;20951;-62
2022/01/29 06:30:53;;;;;;;3.72;1.90;;;;;;;-0.82;73.80;98165.92;1685984;83;20981;-63
2022/01/29 06:33:19;;;;;;;5.75;2.80;;;;;;;-0.80;74.16;98177.06;1698022;83;21459;-61
2022/01/29 06:35:47;;;;;;;4.33;2.20;;;;;;;-0.77;74.52;98175.30;1681678;83;20929;-62
2022/01/29 06:38:14;;;;;;;9.23;2.47;;;;;;;-0.75;74.67;98175.38;1689626;83;20916;-64
2022/01/29 06:40:41;;;;;;;5.45;2.30;;;;;;;-0.72;74.96;98171.52;1707384;82;20947;-63
2022/01/29 06:43:08;;;;;;;4.97;2.08;;;;;;;-0.73;75.12;98181.23;1705703;83;21517;-58
2022/01/29 06:45:36;;;;;;;6.05;2.42;;;;;;;-0.74;75.26;98176.19;1688540;83;21107;-62
2022/01/29 06:48:04;;;;;;;7.75;2.98;;;;;;;-0.73;75.45;98172.55;1691686;83;20865;-62
2022/01/29 06:50:32;;;;;;;8.73;2.70;;;;;;;-0.69;75.53;98173.73;1700888;83;20983;-62
2022/01/29 06:52:58;;;;;;;4.58;2.08;;;;;;;-0.65;75.74;98173.59;1696290;83;21473;-60
2022/01/29 06:55:25;;;;;;;5.67;2.10;;;;;;;-0.63;75.75;98171.55;1697133;83;20908;-62
2022/01/29 06:57:51;;;;;;;5.20;2.15;;;;;;;-0.62;75.96;98163.97;1695936;83;21131;-64
2022/01/29 07:00:18;;;;;;;4.95;2.67;;;;;;;-0.62;76.65;98171.86;1706375;83;20987;-63
2022/01/29 07:02:44;;;;;;;8.13;2.65;;;;;;;-0.60;77.18;98177.70;1710492;83;21154;-59
2022/01/29 07:05:11;;;;;;;6.42;2.70;;;;;;;-0.60;77.83;98175.58;1694406;83;21023;-61
2022/01/29 07:07:38;;;;;;;7.67;2.15;;;;;;;-0.60;78.04;98173.76;1701524;82;20944;-62
2022/01/29 07:10:08;;;;;;;7.53;2.80;;;;;;;-0.59;78.51;98181.96;1686532;83;21117;-61
2022/01/29 07:12:39;;;;;;;4.62;2.37;;;;;;;-0.55;78.53;98172.61;1704048;83;20971;-61
2022/01/29 07:15:07;;;;;;;6.25;2.50;;;;;;;-0.55;78.62;98173.92;1698713;83;20881;-62
2022/01/29 07:17:34;;;;;;;4.95;2.30;;;;;;;-0.55;78.73;98174.42;1717759;83;21440;-60
2022/01/29 07:20:01;;;;;;;4.12;1.82;;;;;;;-0.49;78.74;98181.45;1704674;83;21006;-61
2022/01/29 07:22:28;;;;;;;4.95;2.10;;;;;;;-0.49;78.67;98179.63;1682133;83;21178;-64
2022/01/29 07:24:54;;;;;;;7.83;2.33;;;;;;;-0.48;78.52;98185.20;1717140;83;20884;-63
2022/01/29 07:27:21;;;;;;;3.95;2.00;;;;;;;-0.44;78.42;98179.80;1708046;83;20935;-64
2022/01/29 07:29:47;;;;;;;3.37;2.08;;;;;;;-0.34;78.23;98184.06;1694214;83;20983;-61
2022/01/29 07:32:14;;;;;;;4.10;1.98;;;;;;;-0.25;78.19;98186.72;1693639;83;21466;-64
2022/01/29 07:34:42;;;;;;;5.58;2.17;;;;;;;-0.19;77.97;98178.47;1696090;83;22372;-62
2022/01/29 07:37:09;;;;;;;6.92;2.10;;;;;;;-0.20;77.61;98178.98;1712287;83;21015;-61
2022/01/29 07:39:35;;;;;;;6.03;1.90;;;;;;;-0.22;77.70;98179.70;1693305;83;20936;-58
2022/01/29 07:42:03;;;;;;;5.00;1.72;;;;;;;-0.18;77.23;98178.24;1692466;83;21515;-60
2022/01/29 07:44:30;;;;;;;5.30;2.10;;;;;;;-0.23;77.31;98178.08;1708655;83;21412;-58
2022/01/29 07:46:57;;;;;;;5.62;2.10;;;;;;;-0.28;77.36;98176.61;1715617;83;21558;-60
2022/01/29 07:49:23;;;;;;;4.67;2.20;;;;;;;-0.34;77.46;98177.48;1714070;83;20911;-59
2022/01/29 07:51:50;;;;;;;5.22;1.98;;;;;;;-0.40;77.65;98175.70;1705294;83;20920;-63
2022/01/29 07:54:16;;;;;;;6.92;2.35;;;;;;;-0.45;77.76;98174.25;1697302;82;20952;-63
2022/01/29 07:56:43;;;;;;;6.75;2.22;;;;;;;-0.45;77.93;98174.76;1683458;83;20857;-62
2022/01/29 07:59:10;;;;;;;5.50;2.25;;;;;;;-0.48;77.93;98173.36;1705602;83;21777;-63
2022/01/29 08:01:36;;;;;;;5.87;2.58;;;;;;;-0.50;77.91;98174.09;1702489;83;21002;-62
2022/01/29 08:04:05;;;;;;;5.05;2.45;;;;;;;-0.51;78.05;98175.09;1682156;82;20939;-64
2022/01/29 08:06:33;;;;;;;7.05;2.77;;;;;;;-0.52;78.08;98180.08;1687885;82;20943;-63
2022/01/29 08:08:59;;;;;;;6.55;2.77;;;;;;;-0.51;77.93;98189.57;1690749;83;21028;-62
2022/01/29 08:11:27;;;;;;;5.37;2.45;;;;;;;-0.51;77.98;98187.44;1706139;82;21128;-64
2022/01/29 08:13:53;;;;;;;7.20;2.70;;;;;;;-0.52;78.02;98186.66;1716807;83;20936;-61
2022/01/29 08:16:20;;;;;;;7.42;2.70;;;;;;;-0.51;78.02;98191.39;1705442;83;21493;-61
2022/01/29 08:18:46;;;;;;;7.05;2.87;;;;;;;-0.50;78.18;98188.56;1698714;83;20908;-62
2022/01/29 08:21:16;;;;;;;4.53;2.25;;;;;;;-0.45;78.34;98188.73;1694919;82;21093;-60
2022/01/29 08:23:43;;;;;;;6.50;2.67;;;;;;;-0.42;78.28;98192.22;1702077;82;21669;-58
2022/01/29 08:26:10;;;;;;;4.58;2.60;;;;;;;-0.42;78.43;98195.36;1710220;83;20947;-59
2022/01/29 08:28:38;;;;;;;7.80;3.65;;;;;;;-0.43;78.55;98205.10;1686354;82;20903;-59
2022/01/29 08:31:05;;;;;;;7.60;2.95;;;;;;;-0.43;78.68;98210.36;1700691;83;20944;-62
2022/01/29 08:33:32;;;;;;;7.25;2.72;;;;;;;-0.47;78.53;98203.12;1695026;82;20963;-61
2022/01/29 08:35:59;;;;;;;8.75;2.72;;;;;;;-0.47;78.57;98196.54;1705624;83;21047;-62
2022/01/29 08:38:26;;;;;;;5.60;2.70;;;;;;;-0.45;78.58;98183.46;1690042;83;20944;-63
2022/01/29 08:40:54;;;;;;;9.58;3.60;;;;;;;-0.40;78.58;98186.23;1683526;83;21416;-59
2022/01/29 08:43:22;;;;;;;8.18;3.25;;;;;;;-0.35;78.53;98200.87;1683479;83;20944;-59
2022/01/29 08:45:50;;;;;;;10.30;3.65;;;;;;;-0.34;78.08;98214.84;1703422;83;20908;-62
2022/01/29 08:48:18;;;;;;;5.90;2.72;;;;;;;-0.36;77.96;98187.43;1703077;83;21121;-58
2022/01/29 08:50:44;;;;;;;10.53;2.80;;;;;;;-0.33;77.88;98196.19;1694040;83;21130;-59
2022/01/29 08:53:11;;;;;;;6.03;2.60;;;;;;;-0.37;77.38;98191.07;1684892;83;21051;-60
2022/01/29 08:55:38;;;;;;;6.45;3.05;;;;;;;-0.42;77.44;98200.12;1690042;83;20932;-58
2022/01/29 08:58:03;;;;;;;6.40;3.22;;;;;;;-0.45;77.42;98209.78;1703297;83;20939;-63
2022/01/29 09:00:29;;;;;;;7.10;2.62;;;;;;;-0.44;77.64;98209.24;1692817;83;21056;-60
2022/01/29 09:02:56;;;;;;;7.65;2.50;;;;;;;-0.44;77.51;98210.56;1692531;83;21034;-59
2022/01/29 09:05:22;;;;;;;6.12;2.50;;;;;;;-0.44;76.92;98221.90;1677535;83;20981;-60
2022/01/29 09:07:49;;;;;;;5.03;2.77;;;;;;;-0.47;77.10;98197.31;1697628;83;21582;-63
2022/01/29 09:10:16;;;;;;;5.78;2.80;;;;;;;-0.47;77.27;98210.48;1689711;83;21037;-64
2022/01/29 09:12:43;;;;;;;7.97;2.50;;;;;;;-0.43;77.23;98211.69;1704252;83;21119;-62
2022/01/29 09:15:09;;;;;;;6.58;2.37;;;;;;;-0.37;76.50;98213.95;1712723;83;21010;-61
2022/01/29 09:17:39;;;;;;;6.40;2.90;;;;;;;-0.34;75.42;98213.02;1694702;83;20908;-64
2022/01/29 09:20:08;;;;;;;7.28;2.95;;;;;;;-0.28;75.25;98210.83;1714097;83;20947;-66
2022/01/29 09:22:35;;;;;;;5.65;3.22;;;;;;;-0.20;75.22;98204.48;1701013;83;21039;-62
2022/01/29 09:25:03;;;;;;;8.20;3.77;;;;;;;-0.10;74.68;98204.30;1701024;83;21111;-65
2022/01/29 09:27:29;;;;;;;5.17;2.72;;;;;;;-0.04;74.21;98214.47;1696005;83;21459;-62
2022/01/29 09:29:56;;;;;;;5.45;3.22;;;;;;;-0.04;73.28;98195.52;1699715;83;21069;-64
2022/01/29 09:32:22;;;;;;;6.50;3.37;;;;;;;-0.03;73.58;98197.15;1695427;83;20952;-57
2022/01/29 09:34:49;;;;;;;8.08;3.37;;;;;;;0.02;73.11;98194.36;1693835;83;21514;-59
2022/01/29 09:37:17;;;;;;;8.13;3.70;;;;;;;0.04;72.87;98193.63;1696577;83;21102;-64
2022/01/29 09:39:43;;;;;;;7.55;3.70;;;;;;;0.10;73.00;98191.42;1695532;83;21629;-62
2022/01/29 09:42:11;;;;;;;11.25;4.12;;;;;;;0.13;72.63;98189.18;1700713;83;21031;-64
2022/01/29 09:44:38;;;;;;;7.83;4.20;;;;;;;0.20;72.89;98182.52;1707261;83;20960;-64
2022/01/29 09:47:06;;;;;;;9.03;4.70;;;;;;;0.26;72.28;98172.44;1678457;83;21018;-61
2022/01/29 09:49:34;;;;;;;9.95;5.00;;;;;;;0.30;72.30;98176.23;1705503;83;21672;-62
2022/01/29 09:52:02;;;;;;;8.28;4.37;;;;;;;0.36;71.57;98182.73;1713853;83;21443;-60
2022/01/29 09:54:29;;;;;;;6.67;4.60;;;;;;;0.46;71.54;98180.91;1715123;83;21454;-61
2022/01/29 09:56:57;;;;;;;7.30;4.60;;;;;;;0.58;70.52;98187.05;1703803;82;20952;-62
2022/01/29 09:59:23;;;;;;;9.48;5.00;;;;;;;0.60;69.77;98196.84;1694097;82;20987;-64
2022/01/29 10:01:50;;;;;;;7.10;4.65;;;;;;;0.54;69.46;98192.47;1677263;83;21126;-64
2022/01/29 10:04:17;;;;;;;8.60;4.87;;;;;;;0.51;68.71;98194.23;1697015;83;20912;-61
2022/01/29 10:06:46;;;;;;;7.25;4.55;;;;;;;0.41;68.67;98198.69;1684055;82;20933;-62
2022/01/29 10:09:12;;;;;;;6.62;4.53;;;;;;;0.41;69.24;98188.66;1707236;83;20909;-64
2022/01/29 10:11:40;;;;;;;9.13;4.58;;;;;;;0.42;69.55;98190.28;1648938;83;21006;-60
2022/01/29 10:14:07;;;;;;;8.25;5.05;;;;;;;0.45;68.54;98189.82;1698044;83;21123;-61
2022/01/29 10:16:38;;;;;;;10.50;5.00;;;;;;;0.48;68.08;98195.98;1682863;83;21066;-61
2022/01/29 10:19:10;;;;;;;7.47;4.70;;;;;;;0.54;68.34;98191.16;1693502;83;20865;-63
2022/01/29 10:21:44;;;;;;;6.00;4.37;;;;;;;0.63;67.16;98189.83;1678676;83;21023;-62
2022/01/29 10:24:16;;;;;;;7.30;4.20;;;;;;;0.61;66.71;98189.24;1691583;83;21011;-60
2022/01/29 10:26:49;;;;;;;7.83;4.53;;;;;;;0.65;66.39;98189.89;1694547;83;21185;-61
2022/01/29 10:29:30;;;;;;;7.85;4.28;;;;;;;0.75;65.87;98184.09;1710607;83;20868;-65
2022/01/29 10:31:55;;;;;;;7.42;4.62;;;;;;;0.76;64.99;98194.91;1630459;86;21006;-60
2022/01/29 10:34:32;;;;;;;8.13;4.97;;;;;;;0.68;63.83;98189.97;1678463;85;21447;-64
2022/01/29 10:37:21;;;;;;;5.67;3.80;;;;;;;0.62;64.48;98200.06;1642547;86;21021;-64
2022/01/29 10:39:57;;;;;;;8.35;4.60;;;;;;;0.63;63.61;98195.91;1640162;86;21139;-61
2022/01/29 10:42:37;;;;;;;8.05;4.65;;;;;;;0.67;63.85;98204.16;1634591;86;21146;-61
2022/01/29 10:45:07;;;;;;;9.08;4.50;;;;;;;0.78;64.65;98195.49;1655871;86;21479;-64
2022/01/29 10:47:56;;;;;;;7.33;4.60;;;;;;;0.97;63.92;98185.70;1668772;85;21410;-63
2022/01/29 10:50:24;;;;;;;5.42;4.17;;;;;;;1.11;62.92;98203.77;1665814;85;20928;-64
2022/01/29 10:52:50;;;;;;;6.60;4.80;;;;;;;1.17;62.46;98187.05;1683622;85;21139;-65
2022/01/29 10:55:17;;;;;;;7.17;4.50;;;;;;;1.13;62.76;98193.79;1689254;82;20896;-63
2022/01/29 10:57:46;;;;;;;7.72;4.80;;;;;;;1.10;62.77;98171.02;1708526;83;21042;-59
2022/01/29 11:00:26;;;;;;;9.33;5.15;;;;;;;1.03;62.38;98169.80;1696892;83;21113;-62
2022/01/29 11:02:54;;;;;;;7.90;4.85;;;;;;;0.99;62.65;98162.03;1687355;82;21476;-59
2022/01/29 11:05:25;;;;;;;7.70;4.85;;;;;;;1.02;63.38;98176.09;1701483;83;21503;-60
2022/01/29 11:07:52;;;;;;;9.70;5.33;;;;;;;1.13;61.91;98170.58;1706126;83;20927;-65
2022/01/29 11:10:21;;;;;;;7.67;5.28;;;;;;;1.10;62.31;98178.43;1711141;83;20997;-63
2022/01/29 11:12:49;;;;;;;9.70;5.83;;;;;;;0.99;62.93;98175.22;1698015;83;21015;-60
2022/01/29 11:15:18;;;;;;;7.62;5.75;;;;;;;0.90;63.67;98187.63;1696829;83;21005;-62
2022/01/29 11:17:45;;;;;;;11.08;5.60;;;;;;;0.90;63.98;98179.72;1685929;83;21089;-64
2022/01/29 11:20:12;;;;;;;10.68;6.20;;;;;;;0.89;63.83;98180.25;1714809;83;20903;-64
2022/01/29 11:22:41;;;;;;;9.40;5.62;;;;;;;0.82;64.40;98184.81;1697720;83;21018;-63
2022/01/29 11:25:11;;;;;;;9.78;5.62;;;;;;;0.67;64.77;98185.70;1701321;82;21426;-62
2022/01/29 11:27:38;;;;;;;8.45;5.65;;;;;;;0.54;65.42;98191.16;1702695;83;21027;-61
2022/01/29 11:30:12;;;;;;;12.85;6.45;;;;;;;0.46;66.10;98192.25;1715525;83;21740;-60
2022/01/29 11:32:46;;;;;;;10.72;6.00;;;;;;;0.40;66.27;98187.06;1706264;83;20963;-60
2022/01/29 11:35:22;;;;;;;11.30;6.28;;;;;;;0.34;66.58;98177.39;1691901;82;20948;-59
2022/01/29 11:37:57;;;;;;;8.53;5.87;;;;;;;0.53;66.95;98182.94;1695276;83;21452;-61
2022/01/29 11:40:38;;;;;;;9.10;5.50;;;;;;;0.89;66.22;98176.80;1697841;83;21042;-64
2022/01/29 11:43:22;;;;;;;13.00;6.83;;;;;;;1.08;65.73;98173.09;1692968;83;21439;-64
2022/01/29 11:46:08;;;;;;;8.78;5.58;;;;;;;1.30;63.96;98164.41;1713310;83;20920;-65
2022/01/29 11:48:49;;;;;;;10.03;6.45;;;;;;;1.52;63.93;98162.55;1698304;83;20940;-64
2022/01/29 11:51:08;;;;;;;7.72;5.78;;;;;;;1.63;63.38;98157.78;1693205;83;20861;-63
2022/01/29 11:53:53;;;;;;;10.50;5.10;;;;;;;1.54;62.03;98154.69;1683530;83;20885;-61
2022/01/29 11:56:37;;;;;;;7.65;4.90;;;;;;;1.41;62.43;98152.79;1696488;83;21131;-62
2022/01/29 11:59:30;;;;;;;6.78;4.45;;;;;;;1.27;62.70;98152.98;1696605;82;20987;-61
2022/01/29 12:02:04;;;;;;;7.62;4.50;;;;;;;1.19;62.77;98159.92;1696283;82;21090;-61